KUCY/UCY METAR and TAF weather

Enter ICAO airport designator
Station Type Date Time Source
KUCY METAR 2021/05/13 05:10 UTC NOAA

KUCY 130510Z AUTO 02004KT 10SM CLR 10/03 A3031 RMK A01


Station Type Date Time Source
KUCY Decoded METAR 2021/05/13 05:10 UTC NOAA

Station name not available
May 13, 2021 - 01:10 AM EDT / 2021.05.13 0510 UTC
Wind: from the NNE (020 degrees) at 5 MPH (4 KT):0
Visibility: 10 mile(s):0
Sky conditions: clear
Temperature: 50 F (10 C)
Dew Point: 37 F (3 C)
Relative Humidity: 61%
Pressure (altimeter): 30.31 in. Hg (1026 hPa)
ob: KUCY 130510Z AUTO 02004KT 10SM CLR 10/03 A3031 RMK A01
cycle: 5

Station Type Date Time Source
KUCY TAF UTC NOAA

Error!

Example: see airport list